createdAt,value
2019-03-04T00:02:20.709Z,11.60
2019-03-04T00:04:51.483Z,11.60
2019-03-04T00:07:21.826Z,11.60
2019-03-04T00:09:52.546Z,11.60
2019-03-04T00:12:23.384Z,11.60
2019-03-04T00:14:54.233Z,11.60
2019-03-04T00:17:24.664Z,11.60
2019-03-04T00:19:55.480Z,11.60
2019-03-04T00:22:26.182Z,11.60
2019-03-04T00:24:56.637Z,11.60
2019-03-04T00:27:26.967Z,11.70
2019-03-04T00:29:57.796Z,11.70
2019-03-04T00:32:28.546Z,11.80
2019-03-04T00:34:58.923Z,11.80
2019-03-04T00:37:29.769Z,11.80
2019-03-04T00:40:00.309Z,11.80
2019-03-04T00:42:30.722Z,11.90
2019-03-04T00:45:01.141Z,11.90
2019-03-04T00:47:31.595Z,11.90
2019-03-04T00:50:02.719Z,11.90
2019-03-04T00:52:33.137Z,11.90
2019-03-04T00:55:03.499Z,11.90
2019-03-04T00:57:36.498Z,11.90
2019-03-04T01:00:11.012Z,11.80
2019-03-04T01:02:41.835Z,11.90
2019-03-04T01:05:12.277Z,11.80
2019-03-04T01:07:42.771Z,11.80
2019-03-04T01:10:14.493Z,11.80
2019-03-04T01:12:44.855Z,11.80
2019-03-04T01:15:18.505Z,11.80
2019-03-04T01:17:51.496Z,11.70
2019-03-04T01:20:22.093Z,11.70
2019-03-04T01:22:52.807Z,11.60
2019-03-04T01:25:23.204Z,11.60
2019-03-04T01:27:53.574Z,11.50
2019-03-04T01:30:24.468Z,11.50
2019-03-04T01:32:54.819Z,11.50
2019-03-04T01:35:25.251Z,11.50
2019-03-04T01:37:55.586Z,11.40
2019-03-04T01:40:26.041Z,11.40
2019-03-04T01:42:56.726Z,11.40
2019-03-04T01:45:27.080Z,11.40
2019-03-04T01:47:57.453Z,11.40
2019-03-04T01:50:28.243Z,11.40
2019-03-04T01:52:58.564Z,11.40
2019-03-04T01:55:28.959Z,11.30
2019-03-04T01:57:59.795Z,11.40
2019-03-04T02:00:30.146Z,11.40
2019-03-04T02:03:00.902Z,11.40
2019-03-04T02:05:31.275Z,11.40
2019-03-04T02:08:01.651Z,11.40
2019-03-04T02:10:32.010Z,11.40
2019-03-04T02:13:02.334Z,11.40
2019-03-04T02:15:32.884Z,11.50
2019-03-04T02:18:04.845Z,11.50
2019-03-04T02:20:35.662Z,11.60
2019-03-04T02:23:06.111Z,11.60
2019-03-04T02:26:17.665Z,11.60
2019-03-04T02:28:48.160Z,11.60
2019-03-04T02:31:18.547Z,11.60
2019-03-04T02:33:48.938Z,11.50
2019-03-04T02:36:19.801Z,11.60
2019-03-04T02:38:50.822Z,11.60
2019-03-04T02:41:24.354Z,11.60
2019-03-04T02:43:54.715Z,11.60
2019-03-04T02:46:25.823Z,11.60
2019-03-04T02:48:56.377Z,11.60
2019-03-04T02:51:26.752Z,11.60
2019-03-04T02:53:57.204Z,11.50
2019-03-04T02:56:27.997Z,11.50
2019-03-04T02:58:58.388Z,11.50
2019-03-04T03:01:28.793Z,11.40
2019-03-04T03:04:12.582Z,11.40
2019-03-04T03:06:42.992Z,11.30
2019-03-04T03:09:14.223Z,11.30
2019-03-04T03:11:45.006Z,11.30
2019-03-04T03:14:15.828Z,11.30
2019-03-04T03:16:46.279Z,11.30
2019-03-04T03:19:16.679Z,11.40
2019-03-04T03:21:47.105Z,11.30
2019-03-04T03:24:17.737Z,11.30
2019-03-04T03:26:48.219Z,11.40
2019-03-04T03:29:19.259Z,11.30
2019-03-04T03:31:50.077Z,11.30
2019-03-04T03:34:20.445Z,11.30
2019-03-04T03:36:50.929Z,11.30
2019-03-04T03:39:27.718Z,11.30
2019-03-04T03:41:58.189Z,11.30
2019-03-04T03:44:28.612Z,11.30
2019-03-04T03:46:59.387Z,11.30
2019-03-04T03:49:30.157Z,11.40
2019-03-04T03:52:00.557Z,11.40
2019-03-04T03:54:30.953Z,11.40
2019-03-04T03:57:01.445Z,11.40
2019-03-04T03:59:31.833Z,11.50
2019-03-04T04:02:02.169Z,11.50
2019-03-04T04:04:32.875Z,11.50
2019-03-04T04:07:03.341Z,11.50
2019-03-04T04:09:33.725Z,11.50
2019-03-04T04:12:04.148Z,11.50
2019-03-04T04:14:34.829Z,11.60
2019-03-04T04:17:05.257Z,11.60
2019-03-04T04:19:35.631Z,11.60
2019-03-04T04:22:09.438Z,11.50
2019-03-04T04:24:39.827Z,11.60
2019-03-04T04:27:10.224Z,11.50
2019-03-04T04:29:40.652Z,11.50
2019-03-04T04:32:11.463Z,11.60
2019-03-04T04:34:42.215Z,11.50
2019-03-04T04:37:13.273Z,11.60
2019-03-04T04:39:44.061Z,11.60
2019-03-04T04:42:14.953Z,11.60
2019-03-04T04:44:45.386Z,11.50
2019-03-04T04:47:15.745Z,11.50
2019-03-04T04:49:48.887Z,11.60
2019-03-04T04:52:19.275Z,11.50
2019-03-04T04:54:53.068Z,11.60
2019-03-04T04:57:23.688Z,11.50
2019-03-04T04:59:54.515Z,11.50
2019-03-04T05:02:25.062Z,11.50
2019-03-04T05:05:01.532Z,11.50
2019-03-04T05:07:31.964Z,11.50
2019-03-04T05:10:02.321Z,11.50
2019-03-04T05:12:32.749Z,11.50
2019-03-04T05:15:03.171Z,11.50
2019-03-04T05:17:33.581Z,11.50
2019-03-04T05:20:04.491Z,11.50
2019-03-04T05:22:35.374Z,11.50
2019-03-04T05:25:06.437Z,11.50
2019-03-04T05:27:36.787Z,11.50
2019-03-04T05:30:10.475Z,11.60
2019-03-04T05:32:41.213Z,11.60
2019-03-04T05:35:11.601Z,11.60
2019-03-04T05:37:42.316Z,11.70
2019-03-04T05:40:16.074Z,11.70
2019-03-04T05:42:47.130Z,11.70
2019-03-04T05:45:17.918Z,11.70
2019-03-04T05:47:48.287Z,11.70
2019-03-04T05:50:21.124Z,11.70
2019-03-04T05:52:57.297Z,11.70
2019-03-04T05:55:27.759Z,11.80
2019-03-04T05:58:01.567Z,11.80
2019-03-04T06:00:40.255Z,11.80
2019-03-04T06:03:12.164Z,11.80
2019-03-04T06:05:46.476Z,11.80
2019-03-04T06:08:17.291Z,11.80
2019-03-04T06:10:48.021Z,11.80
2019-03-04T06:13:20.716Z,11.90
2019-03-04T06:15:51.216Z,11.90
2019-03-04T06:18:24.116Z,11.90
2019-03-04T06:20:55.557Z,11.90
2019-03-04T06:23:27.301Z,12.00
2019-03-04T06:25:58.053Z,12.00
2019-03-04T06:28:29.010Z,12.00
2019-03-04T06:31:00.567Z,12.00
2019-03-04T06:33:31.038Z,12.10
2019-03-04T06:36:03.286Z,12.10
2019-03-04T06:38:33.682Z,12.20
2019-03-04T06:41:04.090Z,12.20
2019-03-04T06:43:35.030Z,12.40
2019-03-04T06:46:05.690Z,12.40
2019-03-04T06:48:36.414Z,12.50
2019-03-04T06:51:10.214Z,12.60
2019-03-04T06:54:26.735Z,12.70
2019-03-04T06:57:06.464Z,12.70
2019-03-04T07:00:35.891Z,12.80
2019-03-04T07:03:24.699Z,12.90
2019-03-04T07:05:55.793Z,12.90
2019-03-04T07:09:15.745Z,13.00
2019-03-04T07:11:53.767Z,13.00
2019-03-04T07:14:24.291Z,13.00
2019-03-04T07:16:55.222Z,13.10
2019-03-04T07:19:31.705Z,13.10
2019-03-04T07:22:02.226Z,13.20
2019-03-04T07:24:32.674Z,13.30
2019-03-04T07:27:03.154Z,13.40
2019-03-04T07:29:34.154Z,13.40
2019-03-04T07:32:12.620Z,13.50
2019-03-04T07:34:43.028Z,13.60
2019-03-04T07:37:16.233Z,13.60
2019-03-04T07:39:48.831Z,13.60
2019-03-04T07:42:23.250Z,13.70
2019-03-04T07:44:53.939Z,13.70
2019-03-04T07:47:24.708Z,13.70
2019-03-04T07:49:55.759Z,13.80
2019-03-04T07:52:27.543Z,13.80
2019-03-04T07:54:58.676Z,13.80
2019-03-04T07:57:30.193Z,13.70
2019-03-04T08:00:03.776Z,13.80
2019-03-04T08:02:34.468Z,13.80
2019-03-04T08:05:05.444Z,13.90
2019-03-04T08:07:52.822Z,13.90
2019-03-04T08:11:57.556Z,14.00
2019-03-04T08:14:28.410Z,14.00
2019-03-04T08:16:59.107Z,14.20
2019-03-04T08:19:30.275Z,14.20
2019-03-04T08:22:00.923Z,14.30
2019-03-04T08:24:31.523Z,14.30
2019-03-04T08:27:08.595Z,14.30
2019-03-04T08:29:40.805Z,14.30
2019-03-04T08:32:11.908Z,14.30
2019-03-04T08:34:42.467Z,14.30
2019-03-04T08:37:14.293Z,14.30
2019-03-04T08:39:52.488Z,14.30
2019-03-04T08:42:25.093Z,14.30
2019-03-04T08:44:55.726Z,14.30
2019-03-04T08:47:28.514Z,14.40
2019-03-04T08:50:05.486Z,14.30
2019-03-04T08:52:36.119Z,14.30
2019-03-04T08:55:09.910Z,14.30
2019-03-04T08:57:50.291Z,14.20
2019-03-04T09:00:31.710Z,14.20
2019-03-04T09:03:29.700Z,14.20
2019-03-04T09:06:34.359Z,14.20
2019-03-04T09:09:08.915Z,14.20
2019-03-04T09:11:47.681Z,14.20
2019-03-04T09:14:20.189Z,14.20
2019-03-04T09:16:56.067Z,14.30
2019-03-04T09:19:26.586Z,14.40
2019-03-04T09:21:57.512Z,14.50
2019-03-04T09:24:30.152Z,14.60
2019-03-04T09:27:01.062Z,14.80
2019-03-04T09:29:31.503Z,15.00
2019-03-04T09:32:01.981Z,15.10
2019-03-04T09:34:32.409Z,15.30
2019-03-04T09:37:05.821Z,15.40
2019-03-04T09:39:37.377Z,15.50
2019-03-04T09:42:34.654Z,15.60
2019-03-04T09:45:07.998Z,15.60
2019-03-04T09:47:40.649Z,15.70
2019-03-04T09:50:18.015Z,15.80
2019-03-04T09:53:01.316Z,16.00
2019-03-04T09:55:36.474Z,16.20
2019-03-04T09:58:07.680Z,16.30
2019-03-04T10:01:02.494Z,16.50
2019-03-04T10:04:29.762Z,16.70
2019-03-04T10:07:41.020Z,16.70
2019-03-04T10:11:11.444Z,16.70
2019-03-04T10:14:14.697Z,16.70
2019-03-04T10:17:28.273Z,16.70
2019-03-04T10:20:42.536Z,16.60
2019-03-04T10:24:08.675Z,16.60
2019-03-04T10:27:31.012Z,16.60
2019-03-04T10:31:14.880Z,16.70
2019-03-04T10:35:01.369Z,16.70
2019-03-04T10:39:03.291Z,16.70
2019-03-04T10:42:30.812Z,16.70
2019-03-04T10:45:55.437Z,16.60
2019-03-04T10:48:26.049Z,16.60
2019-03-04T10:50:59.469Z,16.90
2019-03-04T10:53:30.058Z,16.80
2019-03-04T10:56:01.355Z,16.80
2019-03-04T10:58:37.129Z,16.80
2019-03-04T11:01:10.609Z,16.80
2019-03-04T11:03:46.145Z,16.70
2019-03-04T11:06:16.778Z,16.60
2019-03-04T11:09:23.361Z,16.60
2019-03-04T11:12:28.491Z,16.70
2019-03-04T11:15:27.157Z,16.60
2019-03-04T11:18:09.261Z,16.50
2019-03-04T11:20:36.587Z,16.30
2019-03-04T11:23:17.739Z,16.20
2019-03-04T11:25:52.056Z,15.90
2019-03-04T11:32:15.952Z,14.90
2019-03-04T11:34:50.273Z,14.50
2019-03-04T11:37:23.957Z,14.20
2019-03-04T11:40:44.699Z,14.00
2019-03-04T11:43:18.559Z,13.90
2019-03-04T11:46:19.899Z,13.70
2019-03-04T11:49:06.954Z,13.70
2019-03-04T11:51:47.012Z,13.60
2019-03-04T11:54:23.759Z,13.50
2019-03-04T11:57:00.497Z,13.60
2019-03-04T11:59:47.034Z,13.80
2019-03-04T12:02:25.553Z,14.00
2019-03-04T12:04:56.703Z,14.20
2019-03-04T12:07:27.583Z,14.30
2019-03-04T12:09:58.847Z,14.30
2019-03-04T12:12:29.480Z,14.20
2019-03-04T12:15:02.150Z,14.10
2019-03-04T12:17:47.534Z,14.00
2019-03-04T12:20:19.953Z,14.00
2019-03-04T12:22:52.893Z,14.00
2019-03-04T12:25:27.507Z,14.10
2019-03-04T12:27:58.477Z,14.20
2019-03-04T12:30:31.462Z,14.20
2019-03-04T12:33:01.956Z,14.20
2019-03-04T12:35:32.683Z,14.30
2019-03-04T12:38:04.990Z,14.30
2019-03-04T12:40:35.442Z,14.30
2019-03-04T12:43:13.359Z,14.30
2019-03-04T12:45:44.022Z,14.40
2019-03-04T12:48:14.839Z,14.40
2019-03-04T12:50:45.549Z,14.50
2019-03-04T12:53:16.701Z,14.50
2019-03-04T12:55:47.097Z,14.50
2019-03-04T12:58:17.921Z,14.50
2019-03-04T13:00:48.422Z,14.50
2019-03-04T13:03:25.404Z,14.50
2019-03-04T13:05:56.109Z,14.50
2019-03-04T13:08:26.859Z,14.60
2019-03-04T13:10:57.609Z,14.60
2019-03-04T13:13:31.554Z,14.60
2019-03-04T13:16:04.053Z,14.60
2019-03-04T13:18:43.392Z,14.60
2019-03-04T13:21:14.241Z,14.60
2019-03-04T13:23:51.832Z,14.70
2019-03-04T13:26:22.384Z,14.70
2019-03-04T13:28:56.003Z,14.70
2019-03-04T13:31:34.945Z,14.70
2019-03-04T13:34:14.177Z,14.70
2019-03-04T13:36:47.235Z,14.80
2019-03-04T13:39:20.705Z,14.80
2019-03-04T13:42:06.027Z,14.80
2019-03-04T13:44:38.830Z,14.80
2019-03-04T13:47:16.111Z,14.80
2019-03-04T13:50:03.476Z,14.80
2019-03-04T13:52:39.470Z,14.80
2019-03-04T13:55:38.233Z,14.70
2019-03-04T13:58:09.501Z,14.70
2019-03-04T14:00:47.721Z,14.60
2019-03-04T14:03:50.556Z,14.60
2019-03-04T14:06:40.536Z,14.60
2019-03-04T14:09:29.414Z,14.60
2019-03-04T14:12:32.358Z,14.50
2019-03-04T14:15:02.980Z,14.60
2019-03-04T14:17:35.336Z,14.70
2019-03-04T14:20:08.579Z,14.70
2019-03-04T14:22:40.658Z,14.60
2019-03-04T14:25:34.916Z,14.60
2019-03-04T14:28:14.458Z,14.60
2019-03-04T14:31:11.227Z,14.60
2019-03-04T14:33:45.675Z,14.50
2019-03-04T14:36:16.270Z,14.50
2019-03-04T14:38:55.195Z,14.40
2019-03-04T14:41:29.747Z,14.50
2019-03-04T14:44:26.915Z,14.50
2019-03-04T14:46:58.806Z,14.40
2019-03-04T14:49:45.787Z,14.30
2019-03-04T14:52:28.672Z,14.20
2019-03-04T14:55:06.872Z,14.10
2019-03-04T14:57:38.534Z,14.00
2019-03-04T15:00:23.094Z,14.00
2019-03-04T15:02:56.792Z,13.90
2019-03-04T15:05:31.751Z,13.90
2019-03-04T15:08:04.750Z,13.90
2019-03-04T15:10:37.735Z,13.90
2019-03-04T15:13:09.984Z,13.80
2019-03-04T15:15:41.151Z,13.80
2019-03-04T15:18:35.706Z,13.70
2019-03-04T15:21:30.044Z,13.70
2019-03-04T15:24:02.153Z,13.70
2019-03-04T15:26:41.700Z,13.60
2019-03-04T15:29:08.173Z,13.60
2019-03-04T15:31:41.597Z,13.50
2019-03-04T15:34:12.197Z,13.50
2019-03-04T15:36:43.453Z,13.50
2019-03-04T15:39:23.054Z,13.40
2019-03-04T15:41:54.005Z,13.40
2019-03-04T15:44:26.186Z,13.40
2019-03-04T15:46:56.904Z,13.40
2019-03-04T15:49:27.651Z,13.30
2019-03-04T15:52:04.225Z,13.30
2019-03-04T15:54:37.516Z,13.30
2019-03-04T15:57:08.012Z,13.30
2019-03-04T15:59:41.241Z,13.30
2019-03-04T16:02:16.935Z,13.20
2019-03-04T16:05:02.053Z,13.20
2019-03-04T16:07:32.486Z,13.10
2019-03-04T16:10:03.936Z,13.10
2019-03-04T16:12:36.154Z,13.00
2019-03-04T16:15:10.418Z,13.00
2019-03-04T16:17:40.769Z,12.90
2019-03-04T16:20:15.979Z,12.90
2019-03-04T16:22:45.843Z,12.80
2019-03-04T16:25:16.698Z,12.70
2019-03-04T16:27:47.128Z,12.70
2019-03-04T16:30:20.108Z,12.60
2019-03-04T16:32:51.664Z,12.50
2019-03-04T16:35:22.439Z,12.50
2019-03-04T16:37:56.177Z,12.50
2019-03-04T16:40:34.801Z,12.40
2019-03-04T16:43:05.306Z,12.40
2019-03-04T16:45:35.794Z,12.00
2019-03-04T16:48:16.631Z,11.50
2019-03-04T16:50:51.742Z,10.90
2019-03-04T16:53:23.271Z,10.40
2019-03-04T16:56:03.194Z,10.00
2019-03-04T16:58:34.004Z,9.70
2019-03-04T17:01:16.870Z,9.50
2019-03-04T17:03:55.881Z,9.30
2019-03-04T17:06:30.916Z,9.30
2019-03-04T17:09:32.285Z,9.30
2019-03-04T17:12:08.050Z,9.20
2019-03-04T17:14:41.266Z,9.10
2019-03-04T17:17:36.326Z,9.10
2019-03-04T17:20:09.831Z,9.00
2019-03-04T17:22:48.782Z,9.10
2019-03-04T17:25:19.805Z,9.10
2019-03-04T17:27:59.926Z,9.10
2019-03-04T17:30:50.694Z,9.10
2019-03-04T17:33:21.503Z,9.10
2019-03-04T17:35:52.337Z,9.10
2019-03-04T17:38:26.771Z,9.10
2019-03-04T17:40:57.587Z,9.10
2019-03-04T17:43:33.179Z,9.10
2019-03-04T17:46:03.965Z,9.00
2019-03-04T17:48:36.571Z,9.00
2019-03-04T17:51:07.278Z,9.00
2019-03-04T17:53:39.122Z,9.00
2019-03-04T17:56:09.842Z,8.90
2019-03-04T17:58:46.020Z,8.90
2019-03-04T18:01:16.507Z,8.90
2019-03-04T18:03:53.298Z,8.90
2019-03-04T18:06:29.535Z,8.80
2019-03-04T18:09:06.863Z,8.80
2019-03-04T18:11:40.515Z,8.80
2019-03-04T18:14:16.547Z,8.70
2019-03-04T18:16:46.993Z,8.70
2019-03-04T18:19:17.574Z,8.60
2019-03-04T18:21:49.759Z,8.60
2019-03-04T18:24:20.199Z,8.50
2019-03-04T18:27:20.823Z,8.40
2019-03-04T18:30:29.811Z,8.30
2019-03-04T18:33:58.888Z,8.20
2019-03-04T18:36:50.561Z,8.10
2019-03-04T18:40:06.651Z,8.00
2019-03-04T18:43:25.346Z,8.00
2019-03-04T18:46:34.155Z,8.00
2019-03-04T18:49:04.604Z,7.90
2019-03-04T18:51:36.965Z,7.80
2019-03-04T18:54:19.355Z,7.80
2019-03-04T18:56:49.891Z,7.80
2019-03-04T18:59:51.498Z,7.70
2019-03-04T19:02:30.763Z,7.70
2019-03-04T19:05:03.361Z,7.70
2019-03-04T19:07:35.272Z,7.70
2019-03-04T19:10:06.466Z,7.60
2019-03-04T19:12:37.106Z,7.60
2019-03-04T19:15:11.287Z,7.60
2019-03-04T19:17:41.944Z,7.60
2019-03-04T19:20:14.351Z,7.50
2019-03-04T19:22:48.115Z,7.60
2019-03-04T19:25:23.339Z,7.50
2019-03-04T19:27:54.744Z,7.50
2019-03-04T19:30:25.244Z,7.50
2019-03-04T19:32:58.157Z,7.60
2019-03-04T19:35:28.649Z,7.60
2019-03-04T19:38:00.283Z,7.60
2019-03-04T19:40:30.705Z,7.50
2019-03-04T19:43:16.533Z,7.50
2019-03-04T19:45:50.014Z,7.50
2019-03-04T19:48:20.472Z,7.50
2019-03-04T19:50:52.421Z,7.50
2019-03-04T19:53:23.877Z,7.50
2019-03-04T19:55:54.713Z,7.50
2019-03-04T19:58:25.310Z,7.60
2019-03-04T20:00:56.073Z,7.60
2019-03-04T20:03:26.521Z,7.60
2019-03-04T20:05:57.110Z,7.60
2019-03-04T20:08:27.742Z,7.70
2019-03-04T20:11:03.400Z,7.70
2019-03-04T20:13:33.983Z,7.70
2019-03-04T20:16:05.401Z,7.70
2019-03-04T20:18:39.054Z,7.80
2019-03-04T20:21:10.068Z,7.70
2019-03-04T20:23:40.535Z,7.80
2019-03-04T20:26:14.056Z,7.80
2019-03-04T20:28:44.567Z,7.80
2019-03-04T20:31:17.149Z,7.80
2019-03-04T20:33:47.776Z,7.80
2019-03-04T20:36:18.657Z,7.80
2019-03-04T20:38:50.270Z,7.80
2019-03-04T20:41:20.857Z,7.80
2019-03-04T20:43:52.609Z,7.80
2019-03-04T20:46:23.397Z,7.80
2019-03-04T20:48:53.807Z,7.80
2019-03-04T20:51:24.922Z,7.80
2019-03-04T20:53:57.178Z,7.90
2019-03-04T20:56:34.314Z,7.90
2019-03-04T20:59:07.697Z,7.90
2019-03-04T21:01:38.977Z,7.90
2019-03-04T21:04:09.632Z,7.90
2019-03-04T21:06:48.419Z,7.90
2019-03-04T21:09:22.962Z,7.90
2019-03-04T21:11:53.787Z,7.90
2019-03-04T21:14:24.276Z,7.90
2019-03-04T21:16:55.137Z,7.90
2019-03-04T21:19:26.052Z,7.80
2019-03-04T21:21:56.682Z,7.80
2019-03-04T21:24:27.214Z,7.80
2019-03-04T21:26:58.273Z,7.80
2019-03-04T21:30:16.989Z,7.80
2019-03-04T21:33:20.678Z,7.80
2019-03-04T21:36:44.806Z,7.80
2019-03-04T21:39:16.886Z,7.80
2019-03-04T21:41:57.603Z,7.70
2019-03-04T21:45:49.267Z,7.80
2019-03-04T21:48:32.212Z,7.80
2019-03-04T21:51:38.129Z,7.70
2019-03-04T21:54:06.878Z,7.70
2019-03-04T21:57:09.216Z,7.70
2019-03-04T21:59:41.948Z,7.70
2019-03-04T22:02:33.831Z,7.70
2019-03-04T22:05:10.419Z,7.70
2019-03-04T22:07:41.160Z,7.70
2019-03-04T22:10:13.425Z,7.70
2019-03-04T22:12:46.387Z,7.70
2019-03-04T22:15:20.391Z,7.80
2019-03-04T22:17:51.558Z,7.70
2019-03-04T22:20:24.339Z,7.80
2019-03-04T22:22:56.796Z,7.80
2019-03-04T22:25:30.150Z,7.80
2019-03-04T22:28:03.902Z,7.80
2019-03-04T22:30:39.450Z,7.70
2019-03-04T22:33:11.092Z,7.70
2019-03-04T22:35:41.823Z,7.70
2019-03-04T22:38:12.562Z,7.70
2019-03-04T22:40:43.104Z,7.70
2019-03-04T22:43:13.920Z,7.70
2019-03-04T22:45:44.342Z,7.70
2019-03-04T22:48:14.955Z,7.60
2019-03-04T22:50:45.371Z,7.60
2019-03-04T22:53:18.055Z,7.70
2019-03-04T22:55:48.861Z,7.70
2019-03-04T22:58:28.018Z,7.70
2019-03-04T23:01:39.556Z,7.70
2019-03-04T23:05:01.601Z,7.70
2019-03-04T23:07:45.388Z,7.60
2019-03-04T23:10:39.406Z,7.70
2019-03-04T23:13:48.629Z,7.70
2019-03-04T23:16:26.707Z,7.70
2019-03-04T23:18:57.336Z,7.70
2019-03-04T23:21:28.028Z,7.70
2019-03-04T23:24:00.479Z,7.70
2019-03-04T23:26:31.306Z,7.70
2019-03-04T23:29:01.789Z,7.70
2019-03-04T23:31:32.280Z,7.70
2019-03-04T23:34:02.672Z,7.70
2019-03-04T23:36:33.112Z,7.70
2019-03-04T23:39:05.482Z,7.60
2019-03-04T23:41:35.779Z,7.70
2019-03-04T23:44:06.260Z,7.60
2019-03-04T23:46:36.679Z,7.70
2019-03-04T23:49:07.192Z,7.60
2019-03-04T23:51:37.716Z,7.60
2019-03-04T23:54:08.557Z,7.60
2019-03-04T23:56:38.987Z,7.60
2019-03-04T23:59:09.452Z,7.60
